NCAR-RAP Real-Time Weather Data

Output produced by METARs form (30 March 2017  08:39 UTC)
found at http://weather.rap.ucar.edu/surface/
 
KDCA 300752Z 05009KT 10SM BKN085 BKN250 09/00 A3021 RMK AO2 SLP230 T00940000
KDCA 300652Z 07008KT 10SM FEW250 10/00 A3021 RMK AO2 SLP229 T01000000
KDCA 300552Z 05007KT 10SM FEW250 11/00 A3021 RMK AO2 SLP228 T01060000 10161 20106 51004
KDCA 300452Z 06005KT 10SM CLR 11/01 A3020 RMK AO2 SLP225 T01110011 401940111
KDCA 300352Z 04009KT 10SM FEW250 12/01 A3020 RMK AO2 SLP227 T01220006
KDCA 300252Z 04009KT 10SM CLR 13/01 A3019 RMK AO2 SLP224 T01280011 51018
KDCA 300152Z 04011KT 10SM FEW250 14/02 A3019 RMK AO2 SLP224 T01390017
KDCA 300052Z 04010KT 10SM FEW250 16/02 A3016 RMK AO2 SLP212 T01560022
KDCA 292352Z 03011KT 10SM SCT250 16/03 A3014 RMK AO2 SLP206 T01610033 10194 20156 53018
KDCA 292252Z 02010KT 10SM FEW050 FEW250 17/04 A3012 RMK AO2 SLP198 T01720044
KDCA 292152Z 02009KT 10SM FEW050 FEW250 19/03 A3009 RMK AO2 SLP190 T01890028
KDCA 292052Z 03006KT 10SM FEW050 FEW250 19/02 A3008 RMK AO2 SLP187 T01940022 56013
KDCA 291952Z 35009KT 10SM FEW050 19/03 A3009 RMK AO2 SLP187 T01890028
KDCA 291852Z 35010KT 10SM FEW050 19/04 A3010 RMK AO2 SLP192 T01890039
KDCA 291752Z 34013KT 10SM FEW045 18/04 A3012 RMK AO2 SLP199 T01780044 10178 20128 58005
KDCA 291652Z 33009KT 10SM FEW045 17/04 A3013 RMK AO2 SLP201 T01670039
KDCA 291552Z 01009KT 10SM FEW040 16/06 A3014 RMK AO2 SLP204 T01610056
KDCA 291452Z 35012KT 10SM FEW035 16/07 A3014 RMK AO2 SLP204 T01560067 51015
KDCA 291352Z 01012KT 10SM BKN035 13/06 A3013 RMK AO2 SLP201 T01330061
KDCA 291252Z 01010KT 10SM SCT030 BKN040 13/07 A3011 RMK AO2 SLP194 T01330072
KDCA 291152Z 35011KT 10SM OVC029 13/08 A3009 RMK AO2 SLP189 60000 70002 T01330078 10167 20133 53031
KDCA 291052Z 02010KT 10SM BKN028 OVC034 14/09 A3006 RMK AO2 SLP178 BINOVC T01390089
KDCA 290952Z 02010KT 10SM BKN024 OVC034 14/11 A3003 RMK AO2 SLP169 T01440111
KDCA 290852Z 35008KT 10SM BKN030 OVC038 15/12 A3000 RMK AO2 SLP158 60000 T01500117 51009
KDCA 290833Z 34009KT 10SM BKN031 OVC038 15/12 A3000 RMK AO2 T01500117
KDCA 290825Z 34009KT 10SM FEW018 BKN028 OVC035 15/12 A3000 RMK AO2 T01500122
KDCA 290816Z 35006KT 10SM SCT021 OVC030 15/13 A3000 RMK AO2 T01500128
KDCA 290752Z 36007KT 10SM FEW019 BKN028 OVC041 15/13 A3000 RMK AO2 SLP156 T01500133
KDCA 290714Z 34008KT 10SM FEW018 OVC034 15/14 A3000 RMK AO2 T01500139
KDCA 290652Z 33007KT 10SM FEW022 BKN029 OVC035 15/13 A2999 RMK AO2 RAB25E46 SLP154 P0000 T01500133
KDCA 290603Z 36007KT 10SM BKN027 OVC040 16/12 A2998 RMK AO2 T01610122
KDCA 290552Z 02010KT 10SM SCT027 OVC041 17/12 A2998 RMK AO2 SLP150 60000 T01670117 10206 20167 51010
KDCA 290452Z 36007KT 10SM OVC036 17/12 A2998 RMK AO2 SLP150 T01670122 402330139
KDCA 290352Z 36008KT 10SM SCT029 BKN060 OVC080 17/12 A2996 RMK AO2 SLP144 T01720122
KDCA 290252Z 36009KT 10SM FEW045 BKN070 OVC095 18/13 A2995 RMK AO2 RAE0156 SLP139 P0000 60000 T01780133 51023
KDCA 290152Z 35008KT 10SM -RA SCT049 BKN090 OVC110 18/13 A2993 RMK AO2 RAB43 SLP134 P0000 T01780133
KDCA 290052Z 34005KT 10SM FEW050 FEW090 SCT100 BKN250 19/13 A2990 RMK AO2 SLP125 T01890128
KDCA 282352Z 31008KT 10SM FEW045 FEW080 BKN110 BKN250 21/12 A2988 RMK AO2 RAB2255E08 SLP116 P0000 60000 T02060122 10233 20206 53018
KDCA 282252Z 33010KT 10SM FEW040 SCT080 OVC100 21/12 A2986 RMK AO2 LTG DSNT SE AND S SLP110 BINOVC T02110122
KDCA 282152Z 32011KT 10SM FEW035 BKN070 BKN100 BKN250 22/12 A2984 RMK AO2 LTG DSNT E AND S SLP103 T02220122
KDCA 282052Z 33008KT 290V360 10SM SCT035 SCT060 BKN250 23/13 A2982 RMK AO2 LTG DSNT ALQDS SLP098 CB DSNT SE MOV SE T02280128 56008
KDCA 281952Z 33006KT 10SM SCT038 BKN045 BKN060 BKN250 21/14 A2983 RMK AO2 LTG DSNT N AND E SLP099 T02110139
KDCA 281852Z 34012KT 10SM SCT034 SCT090 BKN140 BKN250 22/14 A2984 RMK AO2 SLP104 T02220139
KDCA 281827Z 34013G17KT 10SM BKN032 BKN090 BKN140 BKN250 21/14 A2984 RMK AO2 T02110139
KDCA 281752Z 31010KT 10SM SCT028 SCT080 BKN140 BKN250 21/15 A2985 RMK AO2 RAB1653E05 SLP107 P0000 60002 T02110150 10217 20167 58003
KDCA 281652Z 29010KT 10SM SCT024 BKN037 OVC070 18/16 A2986 RMK AO2 RAB24E44 SLP111 P0000 T01780156
KDCA 281552Z 28009KT 10SM FEW025 BKN055 OVC095 20/16 A2986 RMK AO2 RAB1457E08 SLP110 BINOVC P0000 T02000161
KDCA 281452Z 24008KT 10SM FEW025 BKN060 OVC095 18/16 A2986 RMK AO2 RAE39 SLP109 P0001 60002 T01830161 58000
KDCA 281352Z 26009KT 10SM -RA SCT045 OVC090 18/16 A2986 RMK AO2 RAB1255 SLP110 P0001 T01830161
KDCA 281252Z 20007KT 10SM FEW048 BKN050 BKN085 OVC150 17/14 A2987 RMK AO2 SLP113 T01670144
KDCA 281152Z 19006KT 10SM SCT080 SCT120 BKN250 17/14 A2986 RMK AO2 SLP110 60000 T01720144 10178 20144 53002
KDCA 281052Z 19003KT 10SM BKN080 BKN120 BKN250 16/14 A2985 RMK AO2 SLP106 T01610139
KDCA 280952Z 19006KT 10SM BKN100 OVC250 16/14 A2984 RMK AO2 RAE07 SLP105 P0000 T01610144
KDCA 280852Z 20003KT 10SM -RA SCT080 OVC100 16/14 A2985 RMK AO2 RAB43 SLP108 LTG DSNT NW CB DSNT NW MOV NE P0000 60000 T01610139 56012
KDCA 280752Z 19005KT 10SM BKN110 OVC250 17/14 A2985 RMK AO2 SLP108 T01670139
KDCA 280652Z 00000KT 10SM BKN100 OVC250 16/14 A2987 RMK AO2 SLP115 T01610139
KDCA 280552Z 00000KT 10SM FEW110 OVC250 14/13 A2989 RMK AO2 SLP120 60000 T01390128 10200 20139 58011
KDCA 280452Z 00000KT 10SM FEW110 BKN140 OVC250 16/13 A2991 RMK AO2 SLP126 T01560133 402440078
KDCA 280352Z 00000KT 10SM FEW110 BKN250 17/13 A2992 RMK AO2 SLP131 T01670133
KDCA 280252Z 06004KT 10SM FEW055 BKN110 OVC250 17/13 A2992 RMK AO2 RAE12 SLP132 P0000 60000 T01670133 58001
KDCA 280152Z 36007KT 10SM -RA SCT060 BKN090 OVC110 19/14 A2994 RMK AO2 RAB47 SLP137 P0000 T01890144
KDCA 280052Z 03003KT 10SM BKN095 19/14 A2993 RMK AO2 SLP134 T01890139
KDCA 272352Z 06003KT 10SM FEW060 BKN200 20/14 A2992 RMK AO2 SLP133 T02000139 10244 20178 55006
KDCA 272252Z 11012KT 10SM SCT060 BKN190 21/13 A2991 RMK AO2 SLP128 T02060133
KDCA 272152Z 05003KT 10SM SCT060 BKN250 23/14 A2992 RMK AO2 SLP131 T02280144
KDCA 272052Z 01004KT 10SM FEW040 BKN250 23/14 A2994 RMK AO2 SLP138 T02280144 56028